Etusivu
METAR-TAF:

METAR-TAF

Lentoasemat :

Ghadamés, Libya

Leveyspiiri: 30-08N, Pituuspiiri: 009-30E, korkeus merenpinnasta: 346 m

METAR: puuttuu

Aika: 19:29 (17:29 UTC)

Sääennuste

Tämä raportti tehtiin 6 tuntia ja 29 minuuttia sitten, kello 11.00 UTC
Ennuste voimassa 05. päivästä klo 12 UTC - 05. päivään klo 21 UTC
Tuuli 2 kn eri suunnista
Näkyvyys 10 km tai enemmän
ei pilviä alle 1500 m:ssä eikä cumulonimbus-pilviä

TAF: HLTD 051100Z 0512/0521 VRB02KT CAVOK

Säähavainnot ja -ennusteet yli 4000 lentoasemalta (METAR- ja TAF-raportit).

Käytössä olevat sääasemat on merkitty karttaan keltaisilla ja punaisilla pisteillä.

Aseta hiiri pisteen päälle nähdäksesi sääaseman nimen.

Klikkaa sitten nähdäksesi säähavainnot ja -ennusteet.

Kartan vaihtaminen: klikkaa mustalla rastilla varustettuja vihreitä pisteitä, niin voit zoomata sisään; viivalla varustettua vihreää pistettä, niin voit zoomata ulos tai vihreitä nuolia, niin pääset viereisille kartoille.


METAR-TAF: